createdAt,value
2022-12-11T00:00:22.552Z,0.00
2022-12-11T00:01:22.515Z,0.00
2022-12-11T00:02:22.587Z,0.00
2022-12-11T00:03:22.526Z,0.00
2022-12-11T00:04:23.532Z,0.00
2022-12-11T00:05:22.472Z,0.00
2022-12-11T00:06:22.487Z,0.00
2022-12-11T00:07:22.474Z,0.00
2022-12-11T00:08:22.556Z,0.00
2022-12-11T00:09:22.456Z,0.00
2022-12-11T00:10:23.444Z,0.00
2022-12-11T00:11:22.409Z,0.00
2022-12-11T00:12:22.406Z,0.00
2022-12-11T00:13:22.412Z,0.00
2022-12-11T00:14:22.392Z,0.00
2022-12-11T00:15:22.364Z,0.00
2022-12-11T00:16:26.947Z,0.00
2022-12-11T00:17:22.371Z,0.00
2022-12-11T00:18:22.406Z,0.00
2022-12-11T00:19:22.332Z,0.00
2022-12-11T00:20:22.360Z,0.00
2022-12-11T00:21:22.326Z,0.00
2022-12-11T00:22:23.365Z,0.00
2022-12-11T00:23:22.286Z,0.00
2022-12-11T00:24:22.296Z,0.00
2022-12-11T00:25:22.345Z,0.00
2022-12-11T00:26:22.264Z,0.00
2022-12-11T00:27:22.356Z,0.00
2022-12-11T00:28:23.257Z,0.00
2022-12-11T00:29:22.231Z,0.00
2022-12-11T00:30:22.230Z,0.00
2022-12-11T00:31:22.295Z,0.00
2022-12-11T00:32:22.199Z,0.00
2022-12-11T00:33:22.183Z,0.00
2022-12-11T00:34:23.203Z,0.00
2022-12-11T00:35:22.162Z,0.00
2022-12-11T00:36:22.168Z,0.00
2022-12-11T00:37:22.146Z,0.00
2022-12-11T00:38:22.219Z,0.00
2022-12-11T00:39:22.131Z,0.00
2022-12-11T00:40:23.125Z,0.00
2022-12-11T00:41:22.098Z,0.00
2022-12-11T00:42:22.104Z,0.00
2022-12-11T00:43:22.094Z,0.00
2022-12-11T00:44:22.170Z,0.00
2022-12-11T00:45:22.060Z,0.00
2022-12-11T00:46:23.190Z,0.00
2022-12-11T00:47:22.047Z,0.00
2022-12-11T00:48:22.044Z,0.00
2022-12-11T00:49:22.021Z,0.00
2022-12-11T00:50:22.027Z,0.00
2022-12-11T00:51:22.128Z,0.00
2022-12-11T00:52:22.999Z,0.00
2022-12-11T00:53:22.015Z,0.00
2022-12-11T00:54:22.032Z,0.00
2022-12-11T00:55:21.989Z,0.00
2022-12-11T00:56:21.940Z,0.00
2022-12-11T00:57:21.930Z,0.00
2022-12-11T00:58:22.938Z,0.00
2022-12-11T00:59:21.908Z,0.00
2022-12-11T01:00:21.898Z,0.00
2022-12-11T01:01:21.957Z,0.00
2022-12-11T01:02:22.014Z,0.00
2022-12-11T01:03:21.869Z,0.00
2022-12-11T01:04:22.870Z,0.00
2022-12-11T01:05:21.854Z,0.00
2022-12-11T01:06:21.850Z,0.00
2022-12-11T01:07:21.866Z,0.00
2022-12-11T01:08:21.876Z,0.00
2022-12-11T01:09:21.828Z,0.00
2022-12-11T01:10:22.870Z,0.00
2022-12-11T01:11:21.816Z,0.00
2022-12-11T01:12:21.772Z,0.00
2022-12-11T01:13:21.781Z,0.00
2022-12-11T01:14:21.758Z,0.00
2022-12-11T01:15:21.741Z,0.00
2022-12-11T01:16:22.769Z,0.00
2022-12-11T01:17:21.717Z,0.00
2022-12-11T01:18:21.739Z,0.00
2022-12-11T01:19:21.693Z,0.00
2022-12-11T01:20:21.698Z,0.00
2022-12-11T01:21:21.680Z,0.00
2022-12-11T01:22:22.690Z,0.00
2022-12-11T01:23:21.661Z,0.00
2022-12-11T01:24:21.660Z,0.00
2022-12-11T01:25:21.652Z,0.00
2022-12-11T01:26:21.630Z,0.00
2022-12-11T01:27:21.607Z,0.00
2022-12-11T01:28:22.668Z,0.00
2022-12-11T01:29:21.611Z,0.00
2022-12-11T01:30:21.620Z,0.00
2022-12-11T01:31:21.600Z,0.00
2022-12-11T01:32:21.566Z,0.00
2022-12-11T01:33:21.565Z,0.00
2022-12-11T01:34:22.565Z,0.00
2022-12-11T01:35:21.545Z,0.00
2022-12-11T01:36:21.582Z,0.00
2022-12-11T01:37:21.558Z,0.00
2022-12-11T01:38:21.523Z,0.00
2022-12-11T01:39:21.474Z,0.00
2022-12-11T01:40:22.510Z,0.00
2022-12-11T01:41:21.511Z,0.00
2022-12-11T01:42:21.465Z,0.00
2022-12-11T01:43:21.441Z,0.00
2022-12-11T01:44:21.450Z,0.00
2022-12-11T01:45:21.425Z,0.00
2022-12-11T01:46:22.499Z,0.00
2022-12-11T01:47:21.399Z,0.00
2022-12-11T01:48:21.410Z,0.00
2022-12-11T01:49:21.375Z,0.00
2022-12-11T01:50:21.382Z,0.00
2022-12-11T01:51:21.374Z,0.00
2022-12-11T01:52:22.376Z,0.00
2022-12-11T01:53:21.357Z,0.00
2022-12-11T01:54:21.339Z,0.00
2022-12-11T01:55:21.313Z,0.00
2022-12-11T01:56:21.327Z,0.00
2022-12-11T01:57:21.311Z,0.00
2022-12-11T01:58:22.306Z,0.00
2022-12-11T01:59:21.268Z,0.00
2022-12-11T02:00:21.289Z,0.00
2022-12-11T02:01:21.287Z,0.00
2022-12-11T02:02:21.320Z,0.00
2022-12-11T02:03:21.239Z,0.00
2022-12-11T02:04:22.241Z,0.00
2022-12-11T02:05:21.223Z,0.00
2022-12-11T02:06:21.222Z,0.00
2022-12-11T02:07:21.209Z,0.00
2022-12-11T02:08:21.253Z,0.00
2022-12-11T02:09:21.183Z,0.00
2022-12-11T02:10:22.198Z,0.00
2022-12-11T02:11:21.188Z,0.00
2022-12-11T02:12:21.157Z,0.00
2022-12-11T02:13:21.132Z,0.00
2022-12-11T02:14:21.150Z,0.00
2022-12-11T02:15:21.118Z,0.00
2022-12-11T02:16:22.163Z,0.00
2022-12-11T02:17:21.122Z,0.00
2022-12-11T02:18:21.103Z,0.00
2022-12-11T02:19:21.081Z,0.00
2022-12-11T02:20:21.076Z,0.00
2022-12-11T02:21:21.082Z,0.00
2022-12-11T02:22:22.066Z,0.00
2022-12-11T02:23:21.030Z,0.00
2022-12-11T02:24:21.026Z,0.00
2022-12-11T02:25:21.007Z,0.00
2022-12-11T02:26:21.009Z,0.00
2022-12-11T02:27:20.982Z,0.00
2022-12-11T02:28:21.989Z,0.00
2022-12-11T02:29:21.032Z,0.00
2022-12-11T02:30:20.961Z,0.00
2022-12-11T02:31:20.957Z,0.00
2022-12-11T02:32:20.970Z,0.00
2022-12-11T02:33:20.921Z,0.00
2022-12-11T02:34:21.952Z,0.00
2022-12-11T02:35:20.902Z,0.00
2022-12-11T02:36:20.941Z,0.00
2022-12-11T02:37:20.874Z,0.00
2022-12-11T02:38:20.883Z,0.00
2022-12-11T02:39:20.871Z,0.00
2022-12-11T02:40:21.875Z,0.00
2022-12-11T02:41:20.850Z,0.00
2022-12-11T02:42:20.845Z,0.00
2022-12-11T02:43:20.827Z,0.00
2022-12-11T02:44:20.807Z,0.00
2022-12-11T02:45:20.809Z,0.00
2022-12-11T02:46:21.797Z,0.00
2022-12-11T02:47:20.774Z,0.00
2022-12-11T02:48:20.779Z,0.00
2022-12-11T02:49:20.752Z,0.00
2022-12-11T02:50:20.763Z,0.00
2022-12-11T02:51:20.754Z,0.00
2022-12-11T02:52:21.741Z,0.00
2022-12-11T02:53:20.719Z,0.00
2022-12-11T02:54:20.703Z,0.00
2022-12-11T02:55:20.694Z,0.00
2022-12-11T02:56:20.851Z,0.00
2022-12-11T02:57:20.679Z,0.00
2022-12-11T02:58:21.672Z,0.00
2022-12-11T02:59:20.654Z,0.00
2022-12-11T03:00:20.646Z,0.00
2022-12-11T03:01:20.674Z,0.00
2022-12-11T03:02:20.671Z,0.00
2022-12-11T03:03:20.612Z,0.00
2022-12-11T03:04:21.623Z,0.00
2022-12-11T03:05:20.598Z,0.00
2022-12-11T03:06:20.583Z,0.00
2022-12-11T03:07:20.558Z,0.00
2022-12-11T03:08:20.628Z,0.00
2022-12-11T03:09:20.547Z,0.00
2022-12-11T03:10:21.541Z,0.00
2022-12-11T03:11:20.521Z,0.00
2022-12-11T03:12:20.526Z,0.00
2022-12-11T03:13:20.513Z,0.00
2022-12-11T03:14:20.511Z,0.00
2022-12-11T03:15:20.484Z,0.00
2022-12-11T03:16:21.556Z,0.00
2022-12-11T03:17:20.455Z,0.00
2022-12-11T03:18:20.461Z,0.00
2022-12-11T03:19:20.430Z,0.00
2022-12-11T03:20:20.439Z,0.00
2022-12-11T03:21:20.439Z,0.00
2022-12-11T03:22:21.439Z,0.00
2022-12-11T03:23:20.396Z,0.00
2022-12-11T03:24:20.411Z,0.00
2022-12-11T03:25:20.392Z,0.00
2022-12-11T03:26:20.378Z,0.00
2022-12-11T03:27:20.363Z,0.00
2022-12-11T03:28:21.387Z,0.00
2022-12-11T03:29:20.338Z,0.00
2022-12-11T03:30:20.362Z,0.00
2022-12-11T03:31:20.317Z,0.00
2022-12-11T03:32:20.314Z,0.00
2022-12-11T03:33:20.295Z,0.00
2022-12-11T03:34:21.300Z,0.00
2022-12-11T03:35:20.284Z,0.00
2022-12-11T03:36:20.337Z,0.00
2022-12-11T03:37:20.251Z,0.00
2022-12-11T03:38:20.270Z,0.00
2022-12-11T03:39:20.241Z,0.00
2022-12-11T03:40:21.246Z,0.00
2022-12-11T03:41:20.217Z,0.00
2022-12-11T03:42:20.233Z,0.00
2022-12-11T03:43:20.219Z,0.00
2022-12-11T03:44:20.176Z,0.00
2022-12-11T03:45:20.179Z,0.00
2022-12-11T03:46:21.299Z,0.00
2022-12-11T03:47:20.163Z,0.00
2022-12-11T03:48:20.153Z,0.00
2022-12-11T03:49:20.159Z,0.00
2022-12-11T03:50:20.120Z,0.00
2022-12-11T03:51:20.158Z,0.00
2022-12-11T03:52:21.112Z,0.00
2022-12-11T03:53:20.095Z,0.00
2022-12-11T03:54:20.071Z,0.00
2022-12-11T03:55:20.074Z,0.00
2022-12-11T03:56:20.053Z,0.00
2022-12-11T03:57:20.060Z,0.00
2022-12-11T03:58:21.047Z,0.00
2022-12-11T03:59:20.030Z,0.00
2022-12-11T04:00:20.046Z,0.00
2022-12-11T04:01:20.110Z,0.00
2022-12-11T04:02:19.994Z,0.00
2022-12-11T04:03:20.000Z,0.00
2022-12-11T04:04:21.017Z,0.00
2022-12-11T04:05:19.980Z,0.00
2022-12-11T04:06:19.949Z,0.00
2022-12-11T04:07:19.939Z,0.00
2022-12-11T04:08:19.986Z,0.00
2022-12-11T04:09:19.916Z,0.00
2022-12-11T04:10:20.933Z,0.00
2022-12-11T04:11:19.892Z,0.00
2022-12-11T04:12:19.891Z,0.00
2022-12-11T04:13:19.885Z,0.00
2022-12-11T04:14:19.866Z,0.00
2022-12-11T04:15:19.926Z,0.00
2022-12-11T04:16:20.878Z,0.00
2022-12-11T04:17:19.829Z,0.00
2022-12-11T04:18:19.834Z,0.00
2022-12-11T04:19:19.806Z,0.00
2022-12-11T04:20:19.803Z,0.00
2022-12-11T04:21:19.790Z,0.00
2022-12-11T04:22:20.780Z,0.00
2022-12-11T04:23:19.786Z,0.00
2022-12-11T04:24:19.762Z,0.00
2022-12-11T04:25:19.760Z,0.00
2022-12-11T04:26:19.750Z,0.00
2022-12-11T04:27:19.758Z,0.00
2022-12-11T04:28:20.792Z,0.00
2022-12-11T04:29:19.770Z,0.00
2022-12-11T04:30:19.701Z,0.00
2022-12-11T04:31:19.727Z,0.00
2022-12-11T04:32:19.698Z,0.00
2022-12-11T04:33:19.665Z,0.00
2022-12-11T04:34:20.659Z,0.00
2022-12-11T04:35:19.643Z,0.00
2022-12-11T04:36:19.637Z,0.00
2022-12-11T04:37:19.641Z,0.00
2022-12-11T04:38:19.617Z,0.00
2022-12-11T04:39:19.641Z,0.00
2022-12-11T04:40:20.596Z,0.00
2022-12-11T04:41:19.585Z,0.00
2022-12-11T04:42:19.566Z,0.00
2022-12-11T04:43:19.591Z,0.00
2022-12-11T04:44:19.544Z,0.00
2022-12-11T04:45:19.547Z,0.00
2022-12-11T04:46:20.608Z,0.00
2022-12-11T04:47:19.531Z,0.00
2022-12-11T04:48:19.501Z,0.00
2022-12-11T04:49:19.558Z,0.00
2022-12-11T04:50:19.505Z,0.00
2022-12-11T04:51:19.472Z,0.00
2022-12-11T04:52:20.477Z,0.00
2022-12-11T04:53:19.455Z,0.00
2022-12-11T04:54:19.435Z,0.00
2022-12-11T04:55:19.449Z,0.00
2022-12-11T04:56:19.423Z,0.00
2022-12-11T04:57:19.427Z,0.00
2022-12-11T04:58:20.408Z,0.00
2022-12-11T04:59:19.397Z,0.00
2022-12-11T05:00:19.394Z,0.00
2022-12-11T05:01:19.447Z,0.00
2022-12-11T05:02:19.344Z,0.00
2022-12-11T05:03:19.348Z,0.00
2022-12-11T05:04:20.352Z,0.00
2022-12-11T05:05:19.333Z,0.00
2022-12-11T05:06:19.316Z,0.00
2022-12-11T05:07:19.352Z,0.00
2022-12-11T05:08:19.316Z,0.00
2022-12-11T05:09:19.329Z,4.00
2022-12-11T05:10:20.284Z,0.00
2022-12-11T05:11:19.274Z,0.00
2022-12-11T05:12:19.247Z,0.00
2022-12-11T05:13:19.264Z,0.00
2022-12-11T05:14:19.229Z,0.00
2022-12-11T05:15:19.220Z,4.00
2022-12-11T05:16:20.272Z,4.00
2022-12-11T05:17:19.213Z,0.00
2022-12-11T05:18:19.183Z,0.00
2022-12-11T05:19:19.201Z,0.00
2022-12-11T05:20:19.202Z,0.00
2022-12-11T05:21:19.181Z,0.00
2022-12-11T05:22:20.166Z,0.00
2022-12-11T05:23:19.151Z,0.00
2022-12-11T05:24:19.135Z,0.00
2022-12-11T05:25:19.119Z,4.00
2022-12-11T05:26:19.111Z,4.00
2022-12-11T05:27:19.104Z,0.00
2022-12-11T05:28:20.082Z,0.00
2022-12-11T05:29:19.097Z,0.00
2022-12-11T05:30:19.054Z,4.00
2022-12-11T05:31:19.120Z,0.00
2022-12-11T05:32:19.041Z,0.00
2022-12-11T05:33:19.041Z,0.00
2022-12-11T05:34:20.076Z,4.00
2022-12-11T05:35:19.030Z,0.00
2022-12-11T05:36:18.999Z,0.00
2022-12-11T05:37:18.979Z,0.00
2022-12-11T05:38:18.976Z,4.00
2022-12-11T05:39:18.965Z,0.00
2022-12-11T05:40:19.954Z,0.00
2022-12-11T05:41:18.959Z,0.00
2022-12-11T05:42:20.862Z,4.00
2022-12-11T05:43:18.917Z,4.00
2022-12-11T05:44:18.955Z,0.00
2022-12-11T05:45:18.897Z,0.00
2022-12-11T05:46:19.930Z,0.00
2022-12-11T05:47:18.886Z,0.00
2022-12-11T05:48:18.865Z,0.00
2022-12-11T05:49:20.117Z,0.00
2022-12-11T05:50:18.865Z,0.00
2022-12-11T05:51:18.838Z,4.00
2022-12-11T05:52:19.837Z,0.00
2022-12-11T05:53:18.862Z,0.00
2022-12-11T05:54:18.805Z,0.00
2022-12-11T05:55:18.836Z,0.00
2022-12-11T05:56:18.802Z,0.00
2022-12-11T05:57:18.785Z,0.00
2022-12-11T05:58:19.769Z,4.00
2022-12-11T05:59:18.764Z,0.00
2022-12-11T06:00:18.769Z,0.00
2022-12-11T06:01:18.729Z,0.00
2022-12-11T06:02:18.771Z,0.00
2022-12-11T06:03:18.743Z,0.00
2022-12-11T06:04:19.702Z,0.00
2022-12-11T06:05:18.689Z,0.00
2022-12-11T06:06:18.681Z,0.00
2022-12-11T06:07:18.662Z,4.00
2022-12-11T06:08:18.717Z,0.00
2022-12-11T06:09:18.644Z,0.00
2022-12-11T06:10:19.651Z,4.00
2022-12-11T06:11:23.792Z,0.00
2022-12-11T06:12:18.599Z,0.00
2022-12-11T06:13:18.598Z,0.00
2022-12-11T06:14:18.598Z,0.00
2022-12-11T06:15:18.600Z,4.00
2022-12-11T06:16:19.651Z,0.00
2022-12-11T06:17:18.561Z,0.00
2022-12-11T06:18:18.553Z,0.00
2022-12-11T06:19:18.542Z,4.00
2022-12-11T06:20:18.524Z,4.00
2022-12-11T06:21:18.514Z,4.00
2022-12-11T06:22:19.516Z,0.00
2022-12-11T06:23:18.504Z,0.00
2022-12-11T06:24:18.491Z,4.00
2022-12-11T06:25:18.476Z,0.00
2022-12-11T06:26:18.465Z,0.00
2022-12-11T06:27:18.459Z,4.00
2022-12-11T06:28:19.449Z,4.00
2022-12-11T06:29:18.435Z,4.00
2022-12-11T06:30:18.424Z,4.00
2022-12-11T06:31:18.478Z,4.00
2022-12-11T06:32:18.402Z,4.00
2022-12-11T06:33:18.395Z,4.00
2022-12-11T06:34:19.388Z,4.00
2022-12-11T06:35:18.371Z,4.00
2022-12-11T06:36:18.357Z,4.00
2022-12-11T06:37:18.353Z,4.00
2022-12-11T06:38:18.329Z,4.00
2022-12-11T06:39:18.336Z,4.00
2022-12-11T06:40:19.324Z,0.00
2022-12-11T06:41:18.309Z,0.00
2022-12-11T06:42:18.291Z,0.00
2022-12-11T06:43:18.291Z,0.00
2022-12-11T06:44:18.264Z,0.00
2022-12-11T06:45:18.271Z,4.00
2022-12-11T06:46:19.342Z,4.00
2022-12-11T06:47:18.248Z,4.00
2022-12-11T06:48:18.223Z,4.00
2022-12-11T06:49:18.239Z,4.00
2022-12-11T06:50:18.199Z,4.00
2022-12-11T06:51:18.235Z,4.00
2022-12-11T06:52:19.200Z,8.00
2022-12-11T06:53:18.189Z,8.00
2022-12-11T06:54:18.161Z,8.00
2022-12-11T06:55:18.155Z,8.00
2022-12-11T06:56:18.135Z,8.00
2022-12-11T06:57:18.182Z,8.00
2022-12-11T06:58:19.140Z,12.00
2022-12-11T06:59:18.128Z,12.00
2022-12-11T07:00:18.146Z,12.00
2022-12-11T07:01:18.136Z,12.00
2022-12-11T07:02:18.125Z,16.00
2022-12-11T07:03:18.069Z,20.00
2022-12-11T07:04:19.066Z,20.00
2022-12-11T07:05:18.058Z,24.00
2022-12-11T07:06:18.024Z,24.00
2022-12-11T07:07:18.031Z,24.00
2022-12-11T07:08:18.070Z,28.00
2022-12-11T07:09:18.001Z,32.00
2022-12-11T07:10:19.017Z,32.00
2022-12-11T07:11:17.995Z,32.00
2022-12-11T07:12:17.967Z,36.00
2022-12-11T07:13:17.956Z,36.00
2022-12-11T07:14:17.948Z,36.00
2022-12-11T07:15:17.942Z,36.00
2022-12-11T07:16:18.992Z,44.00
2022-12-11T07:17:17.915Z,44.00
2022-12-11T07:18:17.901Z,44.00
2022-12-11T07:19:17.907Z,52.00
2022-12-11T07:20:17.906Z,48.00
2022-12-11T07:21:17.917Z,52.00
2022-12-11T07:22:18.893Z,52.00
2022-12-11T07:23:17.873Z,56.00
2022-12-11T07:24:17.883Z,56.00
2022-12-11T07:25:17.831Z,60.00
2022-12-11T07:26:17.822Z,64.00
2022-12-11T07:27:17.817Z,64.00
2022-12-11T07:28:18.813Z,68.00
2022-12-11T07:29:17.804Z,68.00
2022-12-11T07:30:17.772Z,64.00
2022-12-11T07:31:17.865Z,72.00
2022-12-11T07:32:17.820Z,72.00
2022-12-11T07:33:17.782Z,72.00
2022-12-11T07:34:18.774Z,84.00
2022-12-11T07:35:17.724Z,80.00
2022-12-11T07:36:17.711Z,80.00
2022-12-11T07:37:17.710Z,88.00
2022-12-11T07:38:17.689Z,88.00
2022-12-11T07:39:17.688Z,96.00
2022-12-11T07:40:18.680Z,96.00
2022-12-11T07:41:17.703Z,96.00
2022-12-11T07:42:17.644Z,96.00
2022-12-11T07:43:17.633Z,96.00
2022-12-11T07:44:17.618Z,104.00
2022-12-11T07:45:17.639Z,112.00
2022-12-11T07:46:18.651Z,116.00
2022-12-11T07:47:17.601Z,132.00
2022-12-11T07:48:17.593Z,148.00
2022-12-11T07:49:17.615Z,152.00
2022-12-11T07:50:17.559Z,148.00
2022-12-11T07:51:17.576Z,148.00
2022-12-11T07:52:18.561Z,144.00
2022-12-11T07:53:17.549Z,144.00
2022-12-11T07:54:17.515Z,148.00
2022-12-11T07:55:17.533Z,152.00
2022-12-11T07:56:17.501Z,160.00
2022-12-11T07:57:17.489Z,160.00
2022-12-11T07:58:18.493Z,160.00
2022-12-11T07:59:17.457Z,172.00
2022-12-11T08:00:17.455Z,176.00
2022-12-11T08:01:17.477Z,184.00
2022-12-11T08:02:17.476Z,184.00
2022-12-11T08:03:17.442Z,180.00
2022-12-11T08:04:18.441Z,180.00
2022-12-11T08:05:17.417Z,180.00
2022-12-11T08:06:17.404Z,180.00
2022-12-11T08:07:17.367Z,192.00
2022-12-11T08:08:17.448Z,188.00
2022-12-11T08:09:21.020Z,192.00
2022-12-11T08:10:18.354Z,200.00
2022-12-11T08:11:17.330Z,192.00
2022-12-11T08:12:17.330Z,188.00
2022-12-11T08:13:17.308Z,188.00
2022-12-11T08:14:17.315Z,192.00
2022-12-11T08:15:17.286Z,200.00
2022-12-11T08:16:18.338Z,200.00
2022-12-11T08:17:17.299Z,212.00
2022-12-11T08:18:17.265Z,228.00
2022-12-11T08:19:17.277Z,240.00
2022-12-11T08:20:17.266Z,240.00
2022-12-11T08:21:17.259Z,248.00
2022-12-11T08:22:18.261Z,260.00
2022-12-11T08:23:17.379Z,276.00
2022-12-11T08:24:17.202Z,296.00
2022-12-11T08:25:17.212Z,332.00
2022-12-11T08:26:17.177Z,352.00
2022-12-11T08:27:17.156Z,376.00
2022-12-11T08:28:18.172Z,400.00
2022-12-11T08:29:17.219Z,416.00
2022-12-11T08:30:17.129Z,424.00
2022-12-11T08:31:17.180Z,448.00
2022-12-11T08:32:17.134Z,464.00
2022-12-11T08:33:17.102Z,484.00
2022-12-11T08:34:18.137Z,504.00
2022-12-11T08:35:17.091Z,504.00
2022-12-11T08:36:17.170Z,488.00
2022-12-11T08:37:17.113Z,480.00
2022-12-11T08:38:22.235Z,492.00
2022-12-11T08:39:17.033Z,508.00
2022-12-11T08:40:18.042Z,532.00
2022-12-11T08:41:17.088Z,548.00
2022-12-11T08:42:17.145Z,552.00
2022-12-11T08:43:17.025Z,564.00
2022-12-11T08:44:17.196Z,588.00
2022-12-11T08:45:16.963Z,600.00
2022-12-11T08:46:18.023Z,620.00
2022-12-11T08:47:16.961Z,620.00
2022-12-11T08:48:16.974Z,632.00
2022-12-11T08:49:17.025Z,648.00
2022-12-11T08:50:16.920Z,640.00
2022-12-11T08:51:16.886Z,644.00
2022-12-11T08:52:17.913Z,676.00
2022-12-11T08:53:16.883Z,708.00
2022-12-11T08:54:16.885Z,756.00
2022-12-11T08:55:16.846Z,816.00
2022-12-11T08:56:16.854Z,848.00
2022-12-11T08:57:16.850Z,872.00
2022-12-11T08:58:17.840Z,884.00
2022-12-11T08:59:16.913Z,884.00
2022-12-11T09:00:16.811Z,880.00
2022-12-11T09:01:16.853Z,896.00
2022-12-11T09:02:16.805Z,908.00
2022-12-11T09:03:16.767Z,904.00
2022-12-11T09:04:17.783Z,928.00
2022-12-11T09:05:16.741Z,936.00
2022-12-11T09:06:16.772Z,952.00
2022-12-11T09:07:16.788Z,960.00
2022-12-11T09:08:16.765Z,940.00
2022-12-11T09:09:16.716Z,932.00
2022-12-11T09:10:17.709Z,936.00
2022-12-11T09:11:16.675Z,944.00
2022-12-11T09:12:16.683Z,968.00
2022-12-11T09:13:16.663Z,992.00
2022-12-11T09:14:16.687Z,1016.00
2022-12-11T09:15:16.761Z,996.00
2022-12-11T09:16:17.742Z,960.00
2022-12-11T09:17:16.658Z,908.00
2022-12-11T09:18:16.635Z,908.00
2022-12-11T09:19:16.615Z,888.00
2022-12-11T09:20:16.606Z,872.00
2022-12-11T09:21:16.707Z,840.00
2022-12-11T09:22:17.600Z,840.00
2022-12-11T09:23:16.602Z,856.00
2022-12-11T09:24:16.565Z,840.00
2022-12-11T09:25:16.546Z,820.00
2022-12-11T09:26:16.563Z,780.00
2022-12-11T09:27:16.515Z,760.00
2022-12-11T09:28:17.533Z,720.00
2022-12-11T09:29:17.145Z,684.00
2022-12-11T09:30:16.478Z,660.00
2022-12-11T09:31:16.540Z,684.00
2022-12-11T09:32:16.522Z,644.00
2022-12-11T09:33:16.496Z,580.00
2022-12-11T09:34:17.466Z,548.00
2022-12-11T09:35:16.446Z,484.00
2022-12-11T09:36:16.432Z,472.00
2022-12-11T09:37:16.423Z,508.00
2022-12-11T09:38:16.442Z,536.00
2022-12-11T09:39:16.459Z,512.00
2022-12-11T09:40:17.476Z,492.00
2022-12-11T09:41:16.388Z,504.00
2022-12-11T09:42:16.349Z,500.00
2022-12-11T09:43:16.343Z,524.00
2022-12-11T09:44:16.374Z,520.00
2022-12-11T09:45:16.330Z,548.00
2022-12-11T09:46:17.365Z,572.00
2022-12-11T09:47:16.307Z,592.00
2022-12-11T09:48:16.327Z,616.00
2022-12-11T09:49:16.365Z,648.00
2022-12-11T09:50:16.303Z,684.00
2022-12-11T09:51:16.259Z,716.00
2022-12-11T09:52:17.254Z,748.00
2022-12-11T09:53:16.225Z,784.00
2022-12-11T09:54:16.252Z,812.00
2022-12-11T09:55:16.242Z,848.00
2022-12-11T09:56:16.215Z,880.00
2022-12-11T09:57:16.197Z,904.00
2022-12-11T09:58:17.188Z,904.00
2022-12-11T09:59:16.260Z,924.00
2022-12-11T10:00:16.162Z,984.00
2022-12-11T10:01:16.181Z,1020.00
2022-12-11T10:02:16.178Z,1032.00
2022-12-11T10:03:16.147Z,1000.00
2022-12-11T10:04:17.200Z,972.00
2022-12-11T10:05:16.102Z,964.00
2022-12-11T10:06:16.135Z,964.00
2022-12-11T10:07:16.093Z,968.00
2022-12-11T10:08:16.118Z,988.00
2022-12-11T10:09:16.098Z,1032.00
2022-12-11T10:10:17.069Z,1108.00
2022-12-11T10:11:16.031Z,1188.00
2022-12-11T10:12:16.070Z,1220.00
2022-12-11T10:13:16.089Z,1256.00
2022-12-11T10:14:16.020Z,1304.00
2022-12-11T10:15:16.063Z,1344.00
2022-12-11T10:16:17.033Z,1384.00
2022-12-11T10:17:15.972Z,1344.00
2022-12-11T10:18:15.988Z,1292.00
2022-12-11T10:19:15.947Z,1212.00
2022-12-11T10:20:15.960Z,1164.00
2022-12-11T10:21:15.934Z,1124.00
2022-12-11T10:22:16.947Z,1112.00
2022-12-11T10:23:15.921Z,1132.00
2022-12-11T10:24:29.364Z,1088.00
2022-12-11T10:25:15.883Z,1056.00
2022-12-11T10:26:15.906Z,1040.00
2022-12-11T10:27:15.876Z,1012.00
2022-12-11T10:28:16.875Z,1000.00
2022-12-11T10:29:15.895Z,992.00
2022-12-11T10:30:15.900Z,944.00
2022-12-11T10:31:15.921Z,904.00
2022-12-11T10:32:15.867Z,860.00
2022-12-11T10:33:15.811Z,808.00
2022-12-11T10:34:16.886Z,772.00
2022-12-11T10:35:15.787Z,788.00
2022-12-11T10:36:15.790Z,804.00
2022-12-11T10:37:15.764Z,768.00
2022-12-11T10:38:15.798Z,736.00
2022-12-11T10:39:15.755Z,736.00
2022-12-11T10:40:16.773Z,732.00
2022-12-11T10:41:15.872Z,708.00
2022-12-11T10:42:15.713Z,700.00
2022-12-11T10:43:15.718Z,708.00
2022-12-11T10:44:15.699Z,740.00
2022-12-11T10:45:15.680Z,744.00
2022-12-11T10:46:16.750Z,716.00
2022-12-11T10:47:15.667Z,716.00
2022-12-11T10:48:15.638Z,752.00
2022-12-11T10:49:15.639Z,760.00
2022-12-11T10:50:15.687Z,748.00
2022-12-11T10:51:15.601Z,736.00
2022-12-11T10:52:17.137Z,708.00
2022-12-11T10:53:15.603Z,680.00
2022-12-11T10:54:15.596Z,656.00
2022-12-11T10:55:16.104Z,652.00
2022-12-11T10:56:15.637Z,644.00
2022-12-11T10:58:38.290Z,664.00
2022-12-11T10:59:38.263Z,660.00
2022-12-11T11:01:42.352Z,720.00
2022-12-11T11:02:42.273Z,756.00
2022-12-11T11:04:46.209Z,844.00
2022-12-11T11:05:49.377Z,872.00
2022-12-11T11:07:50.239Z,904.00
2022-12-11T11:08:50.166Z,904.00
2022-12-11T11:10:43.097Z,892.00
2022-12-11T11:11:43.103Z,896.00
2022-12-11T11:13:47.030Z,916.00
2022-12-11T11:14:47.016Z,928.00
2022-12-11T11:16:51.081Z,956.00
2022-12-11T11:17:55.081Z,976.00
2022-12-11T11:18:51.024Z,996.00
2022-12-11T11:19:51.008Z,1000.00
2022-12-11T11:20:51.008Z,992.00
2022-12-11T11:21:51.001Z,968.00
2022-12-11T11:22:50.981Z,952.00
2022-12-11T11:23:53.634Z,948.00
2022-12-11T11:24:50.963Z,964.00
2022-12-11T11:25:50.984Z,984.00
2022-12-11T11:27:12.819Z,992.00
2022-12-11T11:27:50.950Z,996.00
2022-12-11T11:28:50.918Z,988.00
2022-12-11T11:29:53.220Z,988.00
2022-12-11T11:30:50.973Z,980.00
2022-12-11T11:31:50.894Z,968.00
2022-12-11T11:32:50.878Z,940.00
2022-12-11T11:33:50.909Z,932.00
2022-12-11T11:34:50.862Z,928.00
2022-12-11T11:35:50.869Z,916.00
2022-12-11T11:36:50.843Z,892.00
2022-12-11T11:37:50.834Z,848.00
2022-12-11T11:38:50.822Z,808.00
2022-12-11T11:39:50.827Z,780.00
2022-12-11T11:40:50.792Z,764.00
2022-12-11T11:41:50.790Z,756.00
2022-12-11T11:42:50.774Z,756.00
2022-12-11T11:43:50.771Z,768.00
2022-12-11T11:44:50.755Z,792.00
2022-12-11T11:45:50.781Z,812.00
2022-12-11T11:46:50.750Z,820.00
2022-12-11T11:47:50.735Z,824.00
2022-12-11T11:48:50.705Z,824.00
2022-12-11T11:49:50.721Z,812.00
2022-12-11T11:50:50.689Z,800.00
2022-12-11T11:51:50.711Z,792.00
2022-12-11T11:52:50.683Z,784.00
2022-12-11T11:53:50.672Z,780.00
2022-12-11T11:54:50.653Z,788.00
2022-12-11T11:55:50.658Z,804.00
2022-12-11T11:56:50.634Z,828.00
2022-12-11T11:57:50.665Z,848.00
2022-12-11T11:58:50.648Z,864.00
2022-12-11T11:59:50.616Z,880.00
2022-12-11T12:00:50.625Z,892.00
2022-12-11T12:01:50.606Z,904.00
2022-12-11T12:02:50.637Z,900.00
2022-12-11T12:03:50.624Z,916.00
2022-12-11T12:04:50.593Z,952.00
2022-12-11T12:05:50.575Z,1000.00
2022-12-11T12:06:51.131Z,1048.00
2022-12-11T12:07:50.598Z,1084.00
2022-12-11T12:08:50.550Z,1112.00
2022-12-11T12:09:50.546Z,1112.00
2022-12-11T12:10:50.497Z,1116.00
2022-12-11T12:11:50.524Z,1120.00
2022-12-11T12:12:50.505Z,1108.00
2022-12-11T12:13:50.758Z,1108.00
2022-12-11T12:14:52.451Z,1116.00
2022-12-11T12:15:50.509Z,1136.00
2022-12-11T12:16:53.364Z,1164.00
2022-12-11T12:17:55.188Z,1200.00
2022-12-11T12:18:50.533Z,1220.00
2022-12-11T12:19:50.399Z,1236.00
2022-12-11T12:20:50.386Z,1236.00
2022-12-11T12:21:50.393Z,1232.00
2022-12-11T12:22:50.355Z,1220.00
2022-12-11T12:23:50.354Z,1192.00
2022-12-11T12:24:50.360Z,1176.00
2022-12-11T12:25:50.335Z,1156.00
2022-12-11T12:26:50.350Z,1144.00
2022-12-11T12:27:52.845Z,1136.00
2022-12-11T12:28:50.307Z,1140.00
2022-12-11T12:29:50.338Z,1140.00
2022-12-11T12:30:50.316Z,1140.00
2022-12-11T12:31:50.335Z,1132.00
2022-12-11T12:32:50.348Z,1104.00
2022-12-11T12:33:50.272Z,1080.00
2022-12-11T12:34:50.265Z,1064.00
2022-12-11T12:35:50.292Z,1056.00
2022-12-11T12:36:50.245Z,1052.00
2022-12-11T12:37:50.206Z,1052.00
2022-12-11T12:38:50.222Z,1052.00
2022-12-11T12:39:50.222Z,1056.00
2022-12-11T12:40:50.252Z,1052.00
2022-12-11T12:41:50.185Z,1044.00
2022-12-11T12:42:50.209Z,1016.00
2022-12-11T12:43:50.238Z,992.00
2022-12-11T12:44:50.184Z,960.00
2022-12-11T12:45:50.213Z,944.00
2022-12-11T12:46:50.217Z,932.00
2022-12-11T12:47:53.407Z,940.00
2022-12-11T12:48:50.099Z,940.00
2022-12-11T12:49:50.084Z,952.00
2022-12-11T12:50:50.170Z,968.00
2022-12-11T12:51:50.084Z,976.00
2022-12-11T12:52:50.147Z,984.00
2022-12-11T12:53:50.120Z,984.00
2022-12-11T12:54:50.026Z,984.00
2022-12-11T12:55:50.035Z,976.00
2022-12-11T12:56:50.093Z,968.00
2022-12-11T12:57:50.041Z,952.00
2022-12-11T12:58:49.992Z,932.00
2022-12-11T12:59:49.996Z,916.00
2022-12-11T13:00:50.062Z,900.00
2022-12-11T13:01:50.015Z,888.00